Time;durP1;ratioP1;P1;durP2;ratioP2;P2;SDS_P1;SDS_P2;PMS_P1;PMS_P2;Temp;Humidity;BMP_temperature;BMP_pressure;BME280_temperature;BME280_humidity;BME280_pressure;Samples;Min_cycle;Max_cycle;Signal;HPM_P1;HPM_P2
2021/07/07 00:00:23;;;;;;;3.42;0.88;;;20.80;93.20;;;;;;4861591;29;20041;-87
2021/07/07 00:02:49;;;;;;;3.25;0.52;;;20.90;93.30;;;;;;4864925;29;20591;-89
2021/07/07 00:05:16;;;;;;;3.50;0.65;;;20.80;93.00;;;;;;4864122;29;20053;-87
2021/07/07 00:07:43;;;;;;;4.18;1.10;;;20.70;92.90;;;;;;4864684;29;20049;-87
2021/07/07 00:10:11;;;;;;;2.92;0.50;;;20.70;93.30;;;;;;4865961;29;20048;-87
2021/07/07 00:12:37;;;;;;;4.03;0.52;;;20.60;93.00;;;;;;4864995;29;20124;-88
2021/07/07 00:15:11;;;;;;;1.20;0.50;;;20.40;94.00;;;;;;4853032;29;20124;-87
2021/07/07 00:17:38;;;;;;;4.28;0.40;;;20.40;93.90;;;;;;4851034;29;20081;-87
2021/07/07 00:20:08;;;;;;;4.03;0.63;;;20.40;93.80;;;;;;4851627;29;20046;-87
2021/07/07 00:22:34;;;;;;;2.22;0.60;;;20.40;93.90;;;;;;4873207;29;20041;-88
2021/07/07 00:25:00;;;;;;;1.52;0.55;;;20.40;94.30;;;;;;4862601;29;20138;-87
2021/07/07 00:27:25;;;;;;;4.65;0.80;;;20.30;94.00;;;;;;4860807;29;20041;-87
2021/07/07 00:29:53;;;;;;;3.92;0.75;;;20.30;94.30;;;;;;4862395;29;20057;-87
2021/07/07 00:32:19;;;;;;;2.88;0.70;;;20.20;94.60;;;;;;4850430;29;20042;-86
2021/07/07 00:34:45;;;;;;;1.10;0.65;;;20.20;94.60;;;;;;4865517;29;20053;-87
2021/07/07 00:37:11;;;;;;;3.60;0.63;;;20.10;95.10;;;;;;4865929;29;20067;-87
2021/07/07 00:39:37;;;;;;;1.65;0.90;;;20.00;95.40;;;;;;4879237;29;20033;-87
2021/07/07 00:42:03;;;;;;;1.83;0.88;;;20.00;95.80;;;;;;4871588;29;20052;-87
2021/07/07 00:44:28;;;;;;;2.42;0.68;;;19.90;96.10;;;;;;4864589;29;20042;-86
2021/07/07 00:46:54;;;;;;;1.50;0.70;;;19.90;96.10;;;;;;4864544;29;20354;-87
2021/07/07 00:49:20;;;;;;;4.75;0.80;;;19.90;96.20;;;;;;4879788;29;20080;-88
2021/07/07 00:51:45;;;;;;;4.20;0.93;;;19.80;96.30;;;;;;4862933;29;20048;-88
2021/07/07 00:54:13;;;;;;;2.35;1.00;;;19.80;96.70;;;;;;4862343;29;20042;-87
2021/07/07 00:56:41;;;;;;;1.85;0.90;;;19.60;97.10;;;;;;4867049;29;20045;-88
2021/07/07 00:59:07;;;;;;;2.35;0.70;;;19.60;97.10;;;;;;4860656;29;20037;-87
2021/07/07 01:01:34;;;;;;;2.08;0.45;;;19.50;97.10;;;;;;4857747;29;20037;-88
2021/07/07 01:03:59;;;;;;;2.00;1.23;;;19.50;97.30;;;;;;4863033;29;20050;-88
2021/07/07 01:06:25;;;;;;;3.15;0.90;;;19.50;97.30;;;;;;4858933;29;20123;-87
2021/07/07 01:08:50;;;;;;;3.08;1.45;;;19.50;97.50;;;;;;4861063;29;20046;-88
2021/07/07 01:11:16;;;;;;;2.03;0.80;;;19.50;97.60;;;;;;4863213;29;20078;-88
2021/07/07 01:13:41;;;;;;;1.20;0.90;;;19.50;97.50;;;;;;4863154;29;20037;-88
2021/07/07 01:16:08;;;;;;;1.67;0.85;;;19.50;97.60;;;;;;4861448;29;20034;-87
2021/07/07 01:18:34;;;;;;;4.10;1.00;;;19.50;97.70;;;;;;4862087;29;20367;-87
2021/07/07 01:21:00;;;;;;;7.78;1.02;;;19.40;97.90;;;;;;4849188;29;20042;-88
2021/07/07 01:23:26;;;;;;;2.60;1.02;;;19.40;97.90;;;;;;4855352;29;20112;-88
2021/07/07 01:25:51;;;;;;;1.65;0.90;;;19.40;97.80;;;;;;4862025;29;20049;-86
2021/07/07 01:28:17;;;;;;;4.05;0.90;;;19.40;97.90;;;;;;4863066;29;20109;-85
2021/07/07 01:30:43;;;;;;;3.63;1.30;;;19.40;97.90;;;;;;4863578;29;20045;-86
2021/07/07 01:33:09;;;;;;;4.07;0.90;;;19.40;97.90;;;;;;4868245;29;20045;-86
2021/07/07 01:35:36;;;;;;;2.88;1.52;;;19.30;97.90;;;;;;4862631;29;20108;-85
2021/07/07 01:38:01;;;;;;;1.83;0.90;;;19.30;98.00;;;;;;4855800;29;20128;-87
2021/07/07 01:40:27;;;;;;;3.47;1.17;;;19.30;98.00;;;;;;4862565;29;20129;-87
2021/07/07 01:42:54;;;;;;;2.20;0.90;;;19.40;98.20;;;;;;4877855;29;20046;-87
2021/07/07 01:45:23;;;;;;;2.38;1.23;;;19.40;98.20;;;;;;4862253;29;20037;-87
2021/07/07 01:47:50;;;;;;;4.90;1.13;;;19.40;98.20;;;;;;4878729;29;20055;-87
2021/07/07 01:50:16;;;;;;;5.03;1.45;;;19.30;98.30;;;;;;4862306;29;20124;-87
2021/07/07 01:52:42;;;;;;;3.83;1.00;;;19.30;98.30;;;;;;4862877;29;20116;-88
2021/07/07 01:55:11;;;;;;;3.15;1.08;;;19.30;98.30;;;;;;4858196;29;20041;-87
2021/07/07 01:57:46;;;;;;;1.67;1.02;;;19.30;98.30;;;;;;4864283;29;20045;-87
2021/07/07 02:00:13;;;;;;;2.85;1.25;;;19.30;98.40;;;;;;4863615;29;20097;-88
2021/07/07 02:02:39;;;;;;;7.13;1.38;;;19.30;98.40;;;;;;4861780;29;20073;-87
2021/07/07 02:05:06;;;;;;;2.50;1.20;;;19.30;98.40;;;;;;4854010;29;20092;-87
2021/07/07 02:07:32;;;;;;;1.15;1.00;;;19.30;98.30;;;;;;4863256;29;20057;-87
2021/07/07 02:09:57;;;;;;;3.47;1.40;;;19.30;98.40;;;;;;4858716;29;20038;-87
2021/07/07 02:12:22;;;;;;;4.72;1.25;;;19.30;98.50;;;;;;4850669;29;20325;-87
2021/07/07 02:14:48;;;;;;;3.75;1.35;;;19.30;98.60;;;;;;4862682;29;20050;-87
2021/07/07 02:17:14;;;;;;;3.42;1.02;;;19.30;98.50;;;;;;4863629;29;20071;-87
2021/07/07 02:19:39;;;;;;;2.40;1.58;;;19.30;98.40;;;;;;4862681;29;20124;-87
2021/07/07 02:22:05;;;;;;;7.97;1.00;;;19.30;98.40;;;;;;4856935;29;20056;-87
2021/07/07 02:24:30;;;;;;;4.65;1.20;;;19.30;98.30;;;;;;4862034;29;20286;-87
2021/07/07 02:26:56;;;;;;;2.65;1.30;;;19.30;98.30;;;;;;4855575;29;20065;-87
2021/07/07 02:29:21;;;;;;;4.03;1.73;;;19.30;98.30;;;;;;4859093;29;20060;-87
2021/07/07 02:31:46;;;;;;;3.10;1.17;;;19.30;98.30;;;;;;4861675;29;20501;-86
2021/07/07 02:34:12;;;;;;;3.70;1.45;;;19.30;98.40;;;;;;4854687;29;20041;-87
2021/07/07 02:36:37;;;;;;;2.83;1.10;;;19.30;98.60;;;;;;4857176;29;20190;-87
2021/07/07 02:39:05;;;;;;;4.50;1.08;;;19.30;98.60;;;;;;4862738;29;20045;-87
2021/07/07 02:41:30;;;;;;;6.70;1.55;;;19.20;98.60;;;;;;4854634;29;20053;-87
2021/07/07 02:43:56;;;;;;;7.93;1.67;;;19.30;98.60;;;;;;4862796;29;20049;-87
2021/07/07 02:46:21;;;;;;;4.13;1.77;;;19.30;98.70;;;;;;4863860;29;20140;-87
2021/07/07 02:48:47;;;;;;;3.50;1.50;;;19.30;98.70;;;;;;4863448;29;20057;-87
2021/07/07 02:51:13;;;;;;;8.45;1.60;;;19.30;98.70;;;;;;4861720;29;20049;-87
2021/07/07 02:53:38;;;;;;;1.63;1.23;;;19.30;98.70;;;;;;4863513;29;20326;-87
2021/07/07 02:56:04;;;;;;;2.78;1.60;;;19.30;98.80;;;;;;4878559;29;20041;-87
2021/07/07 02:58:30;;;;;;;6.35;2.03;;;19.30;98.90;;;;;;4860005;29;20090;-87
2021/07/07 03:00:55;;;;;;;2.95;1.58;;;19.30;98.90;;;;;;4860507;29;20060;-87
2021/07/07 03:03:23;;;;;;;3.03;1.48;;;19.30;99.00;;;;;;4863016;29;20041;-86
2021/07/07 03:05:54;;;;;;;4.38;1.60;;;19.30;98.90;;;;;;4860758;29;20083;-87
2021/07/07 03:08:20;;;;;;;2.92;1.20;;;19.20;98.80;;;;;;4862192;29;20049;-86
2021/07/07 03:10:46;;;;;;;6.60;1.60;;;19.20;98.80;;;;;;4853776;29;20268;-86
2021/07/07 03:13:13;;;;;;;6.35;1.80;;;19.20;98.80;;;;;;4862689;29;20398;-87
2021/07/07 03:15:40;;;;;;;1.55;1.35;;;19.20;98.80;;;;;;4861763;29;20053;-86
2021/07/07 03:18:07;;;;;;;5.00;1.38;;;19.20;98.80;;;;;;4858728;29;20371;-86
2021/07/07 03:20:33;;;;;;;3.08;1.60;;;19.20;98.80;;;;;;4859276;29;20123;-87
2021/07/07 03:22:58;;;;;;;7.60;1.95;;;19.20;98.80;;;;;;4862880;29;20056;-86
2021/07/07 03:25:24;;;;;;;2.90;1.35;;;19.20;98.90;;;;;;4854896;29;20054;-86
2021/07/07 03:27:50;;;;;;;6.35;1.75;;;19.20;99.00;;;;;;4876802;29;20474;-87
2021/07/07 03:30:17;;;;;;;5.40;1.50;;;19.20;99.00;;;;;;4858949;29;20041;-87
2021/07/07 03:32:43;;;;;;;2.90;1.90;;;19.20;98.90;;;;;;4861619;29;20373;-87
2021/07/07 03:35:09;;;;;;;7.55;1.85;;;19.20;98.90;;;;;;4867512;29;20132;-86
2021/07/07 03:37:35;;;;;;;3.50;1.60;;;19.20;98.90;;;;;;4865574;29;20418;-87
2021/07/07 03:40:02;;;;;;;4.03;1.27;;;19.20;98.90;;;;;;4862716;29;20053;-87
2021/07/07 03:42:28;;;;;;;7.93;1.70;;;19.10;99.00;;;;;;4857088;29;20144;-86
2021/07/07 03:44:53;;;;;;;9.10;1.55;;;19.20;99.10;;;;;;4858815;29;20129;-86
2021/07/07 03:47:19;;;;;;;3.67;1.95;;;19.10;99.00;;;;;;4880600;29;20046;-86
2021/07/07 03:49:44;;;;;;;2.13;1.60;;;19.10;99.10;;;;;;4855728;29;20046;-86
2021/07/07 03:52:10;;;;;;;1.80;1.20;;;19.10;98.90;;;;;;4878196;29;20037;-87
2021/07/07 03:54:35;;;;;;;6.15;1.60;;;19.10;98.80;;;;;;4859137;29;20073;-87
2021/07/07 03:57:01;;;;;;;3.55;1.40;;;19.10;98.70;;;;;;4859768;29;20428;-87
2021/07/07 03:59:26;;;;;;;5.60;1.30;;;19.10;98.80;;;;;;4864830;29;20096;-86
2021/07/07 04:01:52;;;;;;;3.30;1.38;;;19.10;98.70;;;;;;4859104;29;20136;-87
2021/07/07 04:04:17;;;;;;;2.30;1.25;;;19.10;98.50;;;;;;4873754;29;20136;-87
2021/07/07 04:06:46;;;;;;;3.35;1.30;;;19.00;98.10;;;;;;4857294;29;20049;-86
2021/07/07 04:09:13;;;;;;;5.10;1.23;;;19.00;98.10;;;;;;4876036;29;20549;-86
2021/07/07 04:11:40;;;;;;;4.78;1.30;;;19.00;98.10;;;;;;4862845;29;20052;-87
2021/07/07 04:14:05;;;;;;;9.88;2.17;;;19.00;98.20;;;;;;4849413;29;20042;-87
2021/07/07 04:16:31;;;;;;;5.75;1.20;;;19.00;98.30;;;;;;4852409;29;20052;-87
2021/07/07 04:18:56;;;;;;;3.92;1.83;;;19.00;98.30;;;;;;4863131;29;20362;-87
2021/07/07 04:21:22;;;;;;;1.98;1.38;;;19.10;98.40;;;;;;4858133;29;20046;-87
2021/07/07 04:23:47;;;;;;;1.88;1.10;;;19.10;98.60;;;;;;4859899;29;20334;-88
2021/07/07 04:26:13;;;;;;;6.55;1.70;;;19.00;98.60;;;;;;4858052;29;20234;-87
2021/07/07 04:28:39;;;;;;;3.13;1.85;;;19.10;98.70;;;;;;4864564;29;20045;-88
2021/07/07 04:31:05;;;;;;;5.32;1.55;;;19.00;98.70;;;;;;4854765;29;20053;-88
2021/07/07 04:33:30;;;;;;;4.00;1.70;;;19.00;98.70;;;;;;4855001;29;20049;-87
2021/07/07 04:35:56;;;;;;;3.58;1.48;;;19.00;98.80;;;;;;4844782;29;20271;-88
2021/07/07 04:38:21;;;;;;;6.57;1.77;;;19.00;98.80;;;;;;4845548;29;20113;-88
2021/07/07 04:40:47;;;;;;;5.00;2.03;;;19.00;98.80;;;;;;4867663;29;20056;-87
2021/07/07 04:43:12;;;;;;;2.38;1.35;;;19.00;98.80;;;;;;4878270;29;20056;-86
2021/07/07 04:45:38;;;;;;;4.15;1.40;;;19.00;98.90;;;;;;4862495;29;20084;-87
2021/07/07 04:48:03;;;;;;;4.13;1.25;;;19.00;98.70;;;;;;4863259;29;20049;-87
2021/07/07 04:50:29;;;;;;;4.50;1.30;;;18.90;98.20;;;;;;4861498;29;20044;-87
2021/07/07 04:52:54;;;;;;;1.85;1.10;;;18.90;98.20;;;;;;4862413;29;20037;-87
2021/07/07 04:55:20;;;;;;;5.05;1.55;;;18.90;98.30;;;;;;4855468;29;21001;-87
2021/07/07 04:57:46;;;;;;;4.45;1.60;;;18.90;98.40;;;;;;4859665;29;20124;-87
2021/07/07 05:00:20;;;;;;;2.47;1.45;;;18.90;98.50;;;;;;4850739;29;20034;-87
2021/07/07 05:02:48;;;;;;;10.98;1.75;;;18.90;98.50;;;;;;4873497;29;20041;-87
2021/07/07 05:05:15;;;;;;;1.92;1.42;;;18.90;98.70;;;;;;4861601;29;20228;-87
2021/07/07 05:07:42;;;;;;;4.85;1.85;;;18.90;98.80;;;;;;4859168;29;20112;-86
2021/07/07 05:10:08;;;;;;;2.78;1.40;;;18.80;98.90;;;;;;4872015;29;20090;-87
2021/07/07 05:12:35;;;;;;;4.38;1.60;;;18.80;99.00;;;;;;4849127;29;20049;-88
2021/07/07 05:15:02;;;;;;;4.32;1.33;;;18.80;99.10;;;;;;4868109;29;20464;-87
2021/07/07 05:17:28;;;;;;;2.42;1.02;;;18.80;99.00;;;;;;4865595;29;20436;-86
2021/07/07 05:19:54;;;;;;;5.75;1.40;;;18.80;98.90;;;;;;4850231;29;20052;-87
2021/07/07 05:22:20;;;;;;;2.40;1.13;;;18.80;98.80;;;;;;4858397;29;20045;-88
2021/07/07 05:24:45;;;;;;;9.13;1.33;;;18.70;98.70;;;;;;4859677;29;20045;-88
2021/07/07 05:27:12;;;;;;;3.75;1.17;;;18.70;98.60;;;;;;4868464;29;20046;-88
2021/07/07 05:29:38;;;;;;;3.92;1.13;;;18.60;98.50;;;;;;4850419;29;20042;-87
2021/07/07 05:32:04;;;;;;;6.80;0.80;;;18.60;98.30;;;;;;4855800;29;20555;-86
2021/07/07 05:34:30;;;;;;;2.78;0.75;;;18.50;98.30;;;;;;4847606;29;20041;-88
2021/07/07 05:36:56;;;;;;;1.80;1.10;;;18.50;98.30;;;;;;4848059;29;20048;-88
2021/07/07 05:39:21;;;;;;;3.35;1.13;;;18.50;98.50;;;;;;4855779;29;20537;-87
2021/07/07 05:41:47;;;;;;;3.30;1.63;;;18.50;98.30;;;;;;4871583;29;20052;-87
2021/07/07 05:44:12;;;;;;;7.85;1.20;;;18.50;98.20;;;;;;4842962;29;20138;-87
2021/07/07 05:46:38;;;;;;;1.92;1.10;;;18.50;98.40;;;;;;4844302;29;20072;-88
2021/07/07 05:49:03;;;;;;;4.38;1.00;;;18.50;98.40;;;;;;4843165;29;20117;-88
2021/07/07 05:51:29;;;;;;;4.55;1.10;;;18.50;98.40;;;;;;4845157;29;20158;-87
2021/07/07 05:53:54;;;;;;;3.22;1.73;;;18.50;98.50;;;;;;4850889;29;20041;-87
2021/07/07 05:56:20;;;;;;;2.08;1.30;;;18.50;98.50;;;;;;4869906;29;20052;-87
2021/07/07 05:58:46;;;;;;;2.70;1.08;;;18.40;98.30;;;;;;4858564;29;20052;-87
2021/07/07 06:01:12;;;;;;;4.95;1.33;;;18.40;98.40;;;;;;4862624;29;20037;-88
2021/07/07 06:03:38;;;;;;;3.90;1.58;;;18.40;98.50;;;;;;4876415;29;20057;-88
2021/07/07 06:06:04;;;;;;;2.05;1.20;;;18.40;98.70;;;;;;4856888;29;20041;-87
2021/07/07 06:08:29;;;;;;;3.00;1.00;;;18.40;98.40;;;;;;4848451;29;20056;-87
2021/07/07 06:10:55;;;;;;;3.05;1.02;;;18.40;98.30;;;;;;4861913;29;20074;-87
2021/07/07 06:13:20;;;;;;;4.13;1.30;;;18.40;98.30;;;;;;4853031;29;20414;-87
2021/07/07 06:15:46;;;;;;;2.42;1.10;;;18.40;98.40;;;;;;4846666;29;20049;-87
2021/07/07 06:18:11;;;;;;;8.43;1.63;;;18.40;98.60;;;;;;4866350;29;20318;-88
2021/07/07 06:20:37;;;;;;;7.07;1.38;;;18.30;98.60;;;;;;4845951;29;20053;-86
2021/07/07 06:23:03;;;;;;;2.97;1.30;;;18.30;98.30;;;;;;4856561;29;20055;-87
2021/07/07 06:25:28;;;;;;;4.50;1.40;;;18.30;98.00;;;;;;4865351;29;20042;-87
2021/07/07 06:27:54;;;;;;;6.90;1.33;;;18.30;98.20;;;;;;4865865;29;20128;-87
2021/07/07 06:30:27;;;;;;;2.08;0.80;;;18.30;98.40;;;;;;4844274;29;20042;-87
2021/07/07 06:32:54;;;;;;;4.88;1.40;;;18.30;98.30;;;;;;4858335;29;20033;-86
2021/07/07 06:35:20;;;;;;;3.30;1.40;;;18.30;98.50;;;;;;4857760;29;20197;-87
2021/07/07 06:37:48;;;;;;;2.03;1.17;;;18.30;98.60;;;;;;4854703;29;20061;-86
2021/07/07 06:40:16;;;;;;;2.33;1.05;;;18.20;98.80;;;;;;4846046;29;20426;-87
2021/07/07 06:42:41;;;;;;;3.72;1.33;;;18.30;98.80;;;;;;4858257;29;20037;-86
2021/07/07 06:45:09;;;;;;;4.68;1.27;;;18.30;98.90;;;;;;4857164;29;20333;-86
2021/07/07 06:47:35;;;;;;;3.45;1.13;;;18.30;98.70;;;;;;4852818;29;20565;-87
2021/07/07 06:50:01;;;;;;;5.10;1.40;;;18.30;98.50;;;;;;4851816;29;20042;-87
2021/07/07 06:52:27;;;;;;;6.68;1.10;;;18.30;98.50;;;;;;4850548;29;20083;-87
2021/07/07 06:54:53;;;;;;;4.05;1.20;;;18.30;98.60;;;;;;4847653;29;20081;-86
2021/07/07 06:57:18;;;;;;;4.93;1.23;;;18.30;98.70;;;;;;4860748;29;20386;-87
2021/07/07 06:59:44;;;;;;;2.55;1.15;;;18.30;98.70;;;;;;4861420;29;20037;-87
2021/07/07 07:02:09;;;;;;;4.93;1.30;;;18.40;98.70;;;;;;4861535;29;20037;-86
2021/07/07 07:04:35;;;;;;;2.53;1.48;;;18.30;98.60;;;;;;4861347;29;20049;-86
2021/07/07 07:07:00;;;;;;;4.38;1.50;;;18.40;98.80;;;;;;4859965;29;20052;-87
2021/07/07 07:09:26;;;;;;;3.67;1.50;;;18.30;98.90;;;;;;4861326;29;20164;-87
2021/07/07 07:11:53;;;;;;;3.80;1.17;;;18.40;99.00;;;;;;4853426;29;20042;-87
2021/07/07 07:14:18;;;;;;;4.47;1.30;;;18.40;98.90;;;;;;4842644;29;20042;-87
2021/07/07 07:16:44;;;;;;;4.90;1.55;;;18.40;98.90;;;;;;4848534;29;20354;-86
2021/07/07 07:19:11;;;;;;;2.35;1.45;;;18.40;99.00;;;;;;4863614;29;20357;-88
2021/07/07 07:21:37;;;;;;;4.53;1.55;;;18.50;99.10;;;;;;4861300;29;20048;-87
2021/07/07 07:24:03;;;;;;;2.28;1.02;;;18.50;99.00;;;;;;4872149;29;20046;-87
2021/07/07 07:26:28;;;;;;;1.77;1.10;;;18.50;98.80;;;;;;4852938;29;20110;-86
2021/07/07 07:28:58;;;;;;;3.28;1.00;;;18.50;98.70;;;;;;4861037;29;20052;-86
2021/07/07 07:31:24;;;;;;;2.47;1.20;;;18.50;98.20;;;;;;4860731;29;20342;-86
2021/07/07 07:33:50;;;;;;;3.63;1.45;;;18.50;98.30;;;;;;4861026;29;20125;-89
2021/07/07 07:36:16;;;;;;;1.58;1.00;;;18.50;98.30;;;;;;4860000;29;20049;-88
2021/07/07 07:38:45;;;;;;;1.67;1.00;;;18.40;98.40;;;;;;4860982;29;20102;-88
2021/07/07 07:41:11;;;;;;;3.78;1.38;;;18.50;98.40;;;;;;4860605;29;20045;-87
2021/07/07 07:43:37;;;;;;;3.90;1.38;;;18.50;98.50;;;;;;4860517;29;20060;-86
2021/07/07 07:46:03;;;;;;;5.38;1.90;;;18.50;98.70;;;;;;4859410;29;20052;-85
2021/07/07 07:48:29;;;;;;;1.77;1.23;;;18.50;98.90;;;;;;4860769;29;20068;-86
2021/07/07 07:50:55;;;;;;;1.75;1.40;;;18.50;99.00;;;;;;4859893;29;20425;-86
2021/07/07 07:53:21;;;;;;;1.63;1.40;;;18.60;99.00;;;;;;4860245;29;20037;-86
2021/07/07 07:55:47;;;;;;;5.22;1.50;;;18.60;98.80;;;;;;4846564;29;20038;-86
2021/07/07 07:58:18;;;;;;;3.03;1.33;;;18.60;98.70;;;;;;4843647;29;20132;-86
2021/07/07 08:00:45;;;;;;;2.95;1.52;;;18.60;98.60;;;;;;4860163;29;20049;-86
2021/07/07 08:03:11;;;;;;;7.00;1.67;;;18.70;98.60;;;;;;4859280;29;20402;-86
2021/07/07 08:05:37;;;;;;;2.40;1.63;;;18.70;98.40;;;;;;4875410;29;20110;-86
2021/07/07 08:08:02;;;;;;;6.47;1.65;;;18.80;98.50;;;;;;4861662;29;20483;-86
2021/07/07 08:10:29;;;;;;;1.30;1.10;;;18.90;98.50;;;;;;4864432;29;20128;-86
2021/07/07 08:12:55;;;;;;;1.95;1.20;;;18.90;98.20;;;;;;4878954;29;20045;-86
2021/07/07 08:15:23;;;;;;;3.33;1.00;;;19.00;97.90;;;;;;4878580;29;20041;-86
2021/07/07 08:17:49;;;;;;;1.90;1.02;;;19.00;98.60;;;;;;4863797;29;20056;-85
2021/07/07 08:20:15;;;;;;;2.30;1.25;;;19.20;98.10;;;;;;4857585;29;20136;-86
2021/07/07 08:22:41;;;;;;;2.95;1.15;;;19.20;98.20;;;;;;4863285;29;20422;-86
2021/07/07 08:25:08;;;;;;;1.75;1.30;;;19.30;98.00;;;;;;4863067;29;20057;-86
2021/07/07 08:27:34;;;;;;;1.52;1.00;;;19.30;97.10;;;;;;4863654;29;20791;-86
2021/07/07 08:29:59;;;;;;;4.00;1.05;;;19.30;97.10;;;;;;4863860;29;20045;-86
2021/07/07 08:32:25;;;;;;;2.45;1.30;;;19.20;97.60;;;;;;4862934;29;20069;-86
2021/07/07 08:34:50;;;;;;;1.67;1.08;;;19.30;97.90;;;;;;4864005;29;20056;-86
2021/07/07 08:37:16;;;;;;;3.17;1.40;;;19.30;97.70;;;;;;4863403;29;20038;-86
2021/07/07 08:39:42;;;;;;;2.72;1.42;;;19.40;97.60;;;;;;4877966;29;20049;-86
2021/07/07 08:42:07;;;;;;;6.22;1.60;;;19.40;97.60;;;;;;4861981;29;20044;-86
2021/07/07 08:44:34;;;;;;;3.25;1.20;;;19.40;97.70;;;;;;4863533;29;20034;-86
2021/07/07 08:46:59;;;;;;;3.85;1.50;;;19.50;97.70;;;;;;4863990;29;20052;-86
2021/07/07 08:49:25;;;;;;;1.55;1.08;;;19.50;97.60;;;;;;4878359;29;20045;-86
2021/07/07 08:51:50;;;;;;;3.40;0.90;;;19.60;97.80;;;;;;4878177;29;20406;-86
2021/07/07 08:54:18;;;;;;;2.53;0.98;;;19.70;97.10;;;;;;4862204;29;20033;-85
2021/07/07 08:56:45;;;;;;;3.53;2.08;;;19.70;97.10;;;;;;4862922;29;20078;-86
2021/07/07 08:59:13;;;;;;;3.10;1.02;;;19.90;96.60;;;;;;4863496;29;20037;-86
2021/07/07 09:02:05;;;;;;;2.22;1.10;;;19.90;96.40;;;;;;4862544;29;20053;-85
2021/07/07 09:04:45;;;;;;;2.25;1.50;;;20.00;96.90;;;;;;4863223;29;20132;-85
2021/07/07 09:07:14;;;;;;;2.55;1.30;;;20.20;96.30;;;;;;4878568;29;20060;-85
2021/07/07 09:09:48;;;;;;;5.70;1.77;;;20.30;96.50;;;;;;4867589;29;20121;-85
2021/07/07 09:12:29;;;;;;;2.45;1.30;;;20.40;95.60;;;;;;4863830;29;20052;-85
2021/07/07 09:15:05;;;;;;;2.53;1.50;;;20.50;95.50;;;;;;4859149;29;20057;-86
2021/07/07 09:17:41;;;;;;;2.13;1.17;;;20.50;95.20;;;;;;4862662;29;20073;-86
2021/07/07 09:20:18;;;;;;;1.20;0.70;;;20.60;95.10;;;;;;4862887;29;20041;-85
2021/07/07 09:22:45;;;;;;;2.90;1.20;;;20.60;94.50;;;;;;4877753;29;20053;-85
2021/07/07 09:25:13;;;;;;;3.17;1.27;;;20.70;95.60;;;;;;4877389;29;20053;-86
2021/07/07 09:27:39;;;;;;;3.13;1.40;;;20.80;95.80;;;;;;4862473;29;20045;-86
2021/07/07 09:30:11;;;;;;;3.47;1.50;;;20.90;95.70;;;;;;4856505;29;20097;-86
2021/07/07 09:32:48;;;;;;;2.17;0.93;;;21.00;95.70;;;;;;4844513;29;20037;-86
2021/07/07 09:35:17;;;;;;;2.40;0.75;;;21.20;94.80;;;;;;4873714;29;20033;-85
2021/07/07 09:37:51;;;;;;;0.85;0.73;;;21.30;94.60;;;;;;4862058;29;20041;-85
2021/07/07 09:40:17;;;;;;;1.33;0.88;;;21.30;94.00;;;;;;4863070;29;20037;-86
2021/07/07 09:42:45;;;;;;;2.38;0.70;;;21.40;93.40;;;;;;4862430;29;20124;-86
2021/07/07 09:45:13;;;;;;;1.13;0.65;;;21.40;93.90;;;;;;4861460;29;20196;-86
2021/07/07 09:47:40;;;;;;;1.75;0.90;;;21.40;93.70;;;;;;4862633;29;20335;-85
2021/07/07 09:50:07;;;;;;;3.17;0.85;;;21.50;93.40;;;;;;4861866;29;20062;-86
2021/07/07 09:52:33;;;;;;;3.60;0.70;;;21.50;93.90;;;;;;4856173;29;20037;-86
2021/07/07 09:55:05;;;;;;;1.15;0.70;;;21.50;94.20;;;;;;4843916;29;20458;-87
2021/07/07 09:57:31;;;;;;;2.28;0.55;;;21.50;94.60;;;;;;4852201;29;20410;-87
2021/07/07 09:59:56;;;;;;;1.48;0.80;;;21.50;93.60;;;;;;4862620;29;20097;-86
2021/07/07 10:02:22;;;;;;;3.33;0.80;;;21.60;93.80;;;;;;4876467;29;20409;-86
2021/07/07 10:04:50;;;;;;;1.90;0.77;;;21.70;94.10;;;;;;4877010;29;20102;-86
2021/07/07 10:07:15;;;;;;;2.03;0.70;;;21.80;94.10;;;;;;4863017;29;20037;-85
2021/07/07 10:09:44;;;;;;;1.38;0.65;;;22.00;92.30;;;;;;4876830;29;20050;-86
2021/07/07 10:12:11;;;;;;;3.95;0.85;;;22.20;92.40;;;;;;4855677;29;20088;-85
2021/07/07 10:14:36;;;;;;;1.13;0.60;;;22.40;92.10;;;;;;4858213;29;20502;-86
2021/07/07 10:17:02;;;;;;;0.90;0.60;;;22.50;91.90;;;;;;4845478;29;20109;-86
2021/07/07 10:19:28;;;;;;;1.50;0.80;;;22.60;92.00;;;;;;4860698;29;20057;-86
2021/07/07 10:21:55;;;;;;;1.40;0.88;;;22.70;92.80;;;;;;4861250;29;20109;-86
2021/07/07 10:24:27;;;;;;;2.05;0.70;;;22.80;92.20;;;;;;4861328;29;20139;-86
2021/07/07 10:26:57;;;;;;;1.42;0.77;;;23.00;92.10;;;;;;4861291;29;20037;-86
2021/07/07 10:29:23;;;;;;;2.53;0.88;;;23.10;92.20;;;;;;4861706;29;20033;-85
2021/07/07 10:32:00;;;;;;;0.90;0.75;;;23.20;92.20;;;;;;4860485;29;20053;-86
2021/07/07 10:34:29;;;;;;;1.45;0.80;;;23.20;92.10;;;;;;4861260;29;20043;-87
2021/07/07 10:36:56;;;;;;;1.23;0.50;;;23.30;92.30;;;;;;4859819;29;20074;-86
2021/07/07 10:39:22;;;;;;;1.95;1.02;;;23.60;91.70;;;;;;4861106;29;20049;-86
2021/07/07 10:41:54;;;;;;;0.70;0.57;;;23.80;89.10;;;;;;4859876;29;20046;-85
2021/07/07 10:44:22;;;;;;;1.20;0.73;;;24.00;89.90;;;;;;4860311;29;20049;-86
2021/07/07 10:47:00;;;;;;;1.17;0.50;;;24.20;90.40;;;;;;4861795;29;20461;-86
2021/07/07 10:49:38;;;;;;;4.60;0.68;;;24.30;90.90;;;;;;4849702;29;20114;-86
2021/07/07 10:52:06;;;;;;;2.25;0.47;;;24.50;90.20;;;;;;4842696;29;20334;-85
2021/07/07 10:54:33;;;;;;;1.88;0.70;;;24.70;86.10;;;;;;4854252;29;20083;-85
2021/07/07 10:57:02;;;;;;;2.10;0.60;;;24.70;85.20;;;;;;4875938;29;20045;-85
2021/07/07 10:59:28;;;;;;;2.00;0.63;;;24.70;86.10;;;;;;4860517;29;20140;-85
2021/07/07 11:02:08;;;;;;;2.75;0.50;;;24.70;86.10;;;;;;4861695;29;20405;-85
2021/07/07 11:04:42;;;;;;;1.27;0.50;;;24.60;83.70;;;;;;4861480;29;20045;-86
2021/07/07 11:07:27;;;;;;;3.38;0.70;;;24.60;85.70;;;;;;4861084;29;20056;-86
2021/07/07 11:10:14;;;;;;;1.48;0.60;;;24.60;84.90;;;;;;4860745;29;20050;-86
2021/07/07 11:12:40;;;;;;;0.73;0.40;;;24.70;86.00;;;;;;4859911;29;20052;-85
2021/07/07 11:15:16;;;;;;;3.15;0.70;;;24.70;83.60;;;;;;4860919;29;20041;-86
2021/07/07 11:17:50;;;;;;;0.90;0.60;;;24.70;84.10;;;;;;4850165;29;20030;-86
2021/07/07 11:20:30;;;;;;;1.10;0.60;;;24.70;84.00;;;;;;4851412;29;20041;-86
2021/07/07 11:23:09;;;;;;;1.25;0.50;;;24.70;85.00;;;;;;4875868;29;20041;-86
2021/07/07 11:25:37;;;;;;;0.75;0.50;;;24.80;85.70;;;;;;4872240;29;20065;-86
2021/07/07 11:28:05;;;;;;;0.77;0.40;;;24.90;83.90;;;;;;4853329;29;20112;-86
2021/07/07 11:30:31;;;;;;;7.20;0.50;;;24.90;85.20;;;;;;4876051;29;20052;-87
2021/07/07 11:33:02;;;;;;;2.42;0.85;;;25.10;85.10;;;;;;4860069;29;20041;-86
2021/07/07 11:35:33;;;;;;;2.15;0.75;;;25.10;85.30;;;;;;4861238;29;20316;-86
2021/07/07 11:38:02;;;;;;;4.00;0.50;;;25.20;83.90;;;;;;4875280;29;20041;-86
2021/07/07 11:40:32;;;;;;;1.75;0.75;;;25.30;84.40;;;;;;4876106;29;20052;-86
2021/07/07 11:43:05;;;;;;;2.28;0.40;;;25.30;82.60;;;;;;4861855;29;20042;-87
2021/07/07 11:45:45;;;;;;;0.93;0.52;;;25.30;84.00;;;;;;4863862;29;20053;-87
2021/07/07 11:51:05;;;;;;;1.33;0.52;;;25.60;85.80;;;;;;4863918;29;20048;-88
2021/07/07 11:53:43;;;;;;;2.65;0.70;;;25.80;79.80;;;;;;4863432;29;20071;-87
2021/07/07 11:56:17;;;;;;;1.42;0.52;;;26.00;83.80;;;;;;4863631;29;20033;-87
2021/07/07 11:58:51;;;;;;;2.58;0.70;;;26.20;83.50;;;;;;4879219;29;20052;-87
2021/07/07 12:01:25;;;;;;;1.52;0.73;;;26.40;83.50;;;;;;4864198;29;20041;-87
2021/07/07 12:04:06;;;;;;;3.45;0.57;;;26.60;79.30;;;;;;4860467;29;20042;-87
2021/07/07 12:06:33;;;;;;;2.70;0.70;;;26.70;77.30;;;;;;4864097;29;20117;-87
2021/07/07 12:09:01;;;;;;;0.82;0.50;;;26.90;79.40;;;;;;4862920;29;20566;-86
2021/07/07 12:11:27;;;;;;;0.40;0.40;;;27.00;77.80;;;;;;4879076;29;20042;-86
2021/07/07 12:13:56;;;;;;;0.90;0.43;;;27.00;76.00;;;;;;4862826;29;20045;-87
2021/07/07 12:16:32;;;;;;;0.75;0.60;;;27.00;74.20;;;;;;4864035;29;20343;-86
2021/07/07 12:19:11;;;;;;;2.13;0.80;;;26.90;76.20;;;;;;4863345;29;20041;-87
2021/07/07 12:21:47;;;;;;;2.63;0.90;;;26.80;77.50;;;;;;4879228;29;20055;-87
2021/07/07 12:24:19;;;;;;;2.92;0.65;;;26.70;78.80;;;;;;4863503;29;20037;-87
2021/07/07 12:26:47;;;;;;;1.10;0.70;;;26.70;77.30;;;;;;4878888;29;20053;-87
2021/07/07 12:29:41;;;;;;;4.20;1.05;;;26.60;77.30;;;;;;4877501;29;20038;-87
2021/07/07 12:32:21;;;;;;;2.55;0.85;;;26.40;79.30;;;;;;4862121;29;20049;-87
2021/07/07 12:34:51;;;;;;;3.33;0.47;;;26.30;76.60;;;;;;4863507;29;20078;-87
2021/07/07 12:37:17;;;;;;;1.65;0.57;;;26.20;76.90;;;;;;4863076;29;20436;-87
2021/07/07 12:39:46;;;;;;;1.27;0.40;;;26.10;76.70;;;;;;4878653;29;20049;-86
2021/07/07 12:42:15;;;;;;;1.15;0.50;;;25.90;76.80;;;;;;4863056;29;20052;-87
2021/07/07 12:44:42;;;;;;;0.90;0.57;;;25.70;76.90;;;;;;4863341;29;20049;-87
2021/07/07 12:47:16;;;;;;;1.67;0.70;;;25.60;78.70;;;;;;4863312;29;20084;-86
2021/07/07 12:49:44;;;;;;;2.55;0.70;;;25.60;78.50;;;;;;4863372;29;20450;-86
2021/07/07 12:52:20;;;;;;;1.73;0.60;;;25.60;79.40;;;;;;4878140;29;20045;-87